Time;durP1;ratioP1;P1;durP2;ratioP2;P2;SDS_P1;SDS_P2;PMS_P1;PMS_P2;Temp;Humidity;BMP_temperature;BMP_pressure;BME280_temperature;BME280_humidity;BME280_pressure;Samples;Min_cycle;Max_cycle;Signal;HPM_P1;HPM_P2
2024/04/17 00:02:05;;;;;;;8.20;2.80;;;;;;;3.85;100.00;100023.34;5372388;26;20385;-77
2024/04/17 00:04:35;;;;;;;6.70;2.95;;;;;;;3.88;100.00;100029.06;5398579;26;20326;-77
2024/04/17 00:07:03;;;;;;;10.10;2.90;;;;;;;3.96;100.00;100029.66;5372592;26;20330;-77
2024/04/17 00:09:33;;;;;;;7.88;2.72;;;;;;;3.94;100.00;100026.44;5370076;26;22345;-77
2024/04/17 00:12:01;;;;;;;7.30;2.92;;;;;;;3.90;100.00;100026.09;5370642;26;20409;-77
2024/04/17 00:14:34;;;;;;;8.90;3.00;;;;;;;3.91;100.00;100031.25;5370179;26;20727;-77
2024/04/17 00:17:02;;;;;;;7.23;3.10;;;;;;;3.92;100.00;100027.50;5399103;26;20407;-77
2024/04/17 00:19:32;;;;;;;6.97;2.80;;;;;;;3.97;100.00;100017.84;5371825;26;20356;-77
2024/04/17 00:21:59;;;;;;;6.50;3.13;;;;;;;3.86;100.00;100025.78;5373227;26;20366;-77
2024/04/17 00:24:29;;;;;;;7.32;2.90;;;;;;;3.87;100.00;100024.72;5371125;26;20333;-77
2024/04/17 00:26:57;;;;;;;6.40;2.90;;;;;;;3.77;100.00;100021.09;5370480;26;20496;-77
2024/04/17 00:29:27;;;;;;;9.25;3.30;;;;;;;3.73;100.00;100028.88;5399212;26;20400;-77
2024/04/17 00:31:57;;;;;;;8.35;3.20;;;;;;;3.68;100.00;100037.69;5372497;26;20731;-77
2024/04/17 00:34:27;;;;;;;8.82;3.30;;;;;;;3.63;100.00;100026.03;5372618;26;20318;-77
2024/04/17 00:36:55;;;;;;;7.13;3.38;;;;;;;3.57;100.00;100031.34;5400211;26;20326;-77
2024/04/17 00:39:26;;;;;;;10.68;3.40;;;;;;;3.54;100.00;100031.84;5371501;26;20745;-77
2024/04/17 00:41:53;;;;;;;7.47;3.55;;;;;;;3.52;100.00;100028.63;5399631;26;20399;-77
2024/04/17 00:44:23;;;;;;;9.02;3.70;;;;;;;3.57;100.00;100030.53;5400065;26;20387;-77
2024/04/17 00:46:51;;;;;;;8.55;3.35;;;;;;;3.57;100.00;100034.03;5397454;26;20342;-77
2024/04/17 00:49:23;;;;;;;8.32;3.75;;;;;;;3.59;100.00;100028.44;5370796;26;20896;-77
2024/04/17 00:51:51;;;;;;;8.20;3.90;;;;;;;3.56;100.00;100032.44;5399713;26;20414;-77
2024/04/17 00:54:22;;;;;;;7.43;3.80;;;;;;;3.57;100.00;100034.03;5372590;26;20886;-77
2024/04/17 00:56:50;;;;;;;8.03;3.73;;;;;;;3.58;100.00;100026.81;5398404;26;20365;-77
2024/04/17 00:59:21;;;;;;;7.80;3.58;;;;;;;3.59;100.00;100028.44;5370953;26;20368;-77
2024/04/17 01:01:53;;;;;;;8.17;3.70;;;;;;;3.53;100.00;100038.28;5369346;26;20481;-77
2024/04/17 01:04:26;;;;;;;10.25;3.58;;;;;;;3.49;100.00;100023.72;5371263;26;20369;-77
2024/04/17 01:06:53;;;;;;;8.25;3.65;;;;;;;3.49;100.00;100037.16;5397114;26;20581;-77
2024/04/17 01:09:24;;;;;;;8.30;3.40;;;;;;;3.47;100.00;100028.53;5372260;26;20390;-77
2024/04/17 01:11:52;;;;;;;6.95;3.40;;;;;;;3.40;100.00;100020.63;5370892;26;20417;-77
2024/04/17 01:14:22;;;;;;;8.23;3.50;;;;;;;3.38;100.00;100030.03;5396610;26;20338;-77
2024/04/17 01:16:49;;;;;;;10.48;3.92;;;;;;;3.35;100.00;100025.13;5395949;26;20730;-77
2024/04/17 01:19:20;;;;;;;8.35;3.90;;;;;;;3.31;100.00;100022.13;5399019;26;20358;-77
2024/04/17 01:21:50;;;;;;;7.97;3.58;;;;;;;3.30;100.00;100022.38;5371659;26;20326;-76
2024/04/17 01:24:22;;;;;;;10.10;3.60;;;;;;;3.31;100.00;100032.06;5372512;26;20369;-77
2024/04/17 01:26:49;;;;;;;10.20;3.53;;;;;;;3.35;100.00;100027.81;5402319;26;20330;-77
2024/04/17 01:29:19;;;;;;;9.07;3.80;;;;;;;3.31;100.00;100032.06;5374688;26;20520;-77
2024/04/17 01:31:47;;;;;;;8.75;4.00;;;;;;;3.30;100.00;100025.06;5372369;26;20322;-77
2024/04/17 01:34:17;;;;;;;7.93;3.50;;;;;;;3.30;100.00;100033.97;5389729;26;20374;-77
2024/04/17 01:36:44;;;;;;;9.80;4.20;;;;;;;3.30;100.00;100028.59;5374291;26;20385;-77
2024/04/17 01:39:14;;;;;;;8.57;4.00;;;;;;;3.33;100.00;100025.41;5372477;26;20381;-77
2024/04/17 01:41:44;;;;;;;8.73;4.03;;;;;;;3.33;100.00;100021.88;5374869;26;20360;-77
2024/04/17 01:44:14;;;;;;;7.75;3.70;;;;;;;3.31;100.00;100026.69;5374779;26;20389;-77
2024/04/17 01:46:41;;;;;;;9.45;3.83;;;;;;;3.31;100.00;100022.13;5400722;26;20398;-77
2024/04/17 01:49:16;;;;;;;8.30;3.83;;;;;;;3.28;100.00;100028.00;5372951;26;20387;-77
2024/04/17 01:51:44;;;;;;;11.27;4.00;;;;;;;3.21;100.00;100032.75;5374262;26;20385;-77
2024/04/17 01:54:14;;;;;;;9.18;3.80;;;;;;;3.18;100.00;100025.97;5403258;26;20334;-77
2024/04/17 01:56:44;;;;;;;8.30;4.25;;;;;;;3.20;100.00;100033.81;5374088;26;21042;-77
2024/04/17 01:59:13;;;;;;;8.90;3.80;;;;;;;3.18;100.00;100036.75;5373895;26;20348;-77
2024/04/17 02:01:41;;;;;;;11.27;3.80;;;;;;;3.17;100.00;100029.72;5373674;26;20363;-77
2024/04/17 02:04:11;;;;;;;8.40;3.75;;;;;;;3.18;100.00;100035.94;5373423;26;20861;-77
2024/04/17 02:06:38;;;;;;;10.70;4.10;;;;;;;3.17;100.00;100035.09;5370776;26;20421;-76
2024/04/17 02:09:08;;;;;;;10.65;4.32;;;;;;;3.17;100.00;100040.47;5373190;26;20385;-77
2024/04/17 02:11:35;;;;;;;10.03;4.27;;;;;;;3.20;100.00;100029.25;5403091;26;20381;-77
2024/04/17 02:14:08;;;;;;;9.80;4.10;;;;;;;3.20;100.00;100029.25;5402134;26;21409;-77
2024/04/17 02:16:35;;;;;;;8.02;3.92;;;;;;;3.18;100.00;100036.75;5399072;26;20389;-77
2024/04/17 02:19:05;;;;;;;10.00;4.13;;;;;;;3.29;100.00;100034.22;5372220;26;20360;-77
2024/04/17 02:21:33;;;;;;;8.83;4.20;;;;;;;3.25;100.00;100041.16;5400931;26;20752;-77
2024/04/17 02:24:02;;;;;;;9.57;3.80;;;;;;;3.10;100.00;100042.53;5370788;26;20321;-77
2024/04/17 02:26:30;;;;;;;8.60;4.10;;;;;;;3.01;100.00;100035.94;5373542;26;20674;-77
2024/04/17 02:29:00;;;;;;;9.88;4.22;;;;;;;2.92;100.00;100037.41;5372079;26;20329;-77
2024/04/17 02:31:30;;;;;;;10.52;4.40;;;;;;;2.84;100.00;100028.69;5401809;26;20379;-77
2024/04/17 02:34:00;;;;;;;9.53;4.10;;;;;;;2.78;100.00;100034.25;5373909;26;20378;-77
2024/04/17 02:36:27;;;;;;;7.97;3.83;;;;;;;2.74;100.00;100033.09;5400304;26;20394;-76
2024/04/17 02:38:57;;;;;;;9.00;4.60;;;;;;;2.67;100.00;100033.25;5374095;26;22416;-77
2024/04/17 02:41:25;;;;;;;9.63;4.20;;;;;;;2.61;100.00;100036.91;5373673;26;21163;-77
2024/04/17 02:43:54;;;;;;;8.65;4.07;;;;;;;2.53;100.00;100030.88;5368754;26;20394;-77
2024/04/17 02:46:22;;;;;;;10.43;4.55;;;;;;;2.49;100.00;100039.66;5381888;26;20399;-77
2024/04/17 02:48:54;;;;;;;9.90;4.30;;;;;;;2.48;100.00;100029.97;5401810;26;20439;-77
2024/04/17 02:51:22;;;;;;;8.70;4.75;;;;;;;2.46;100.00;100032.06;5371555;26;20845;-77
2024/04/17 02:53:52;;;;;;;11.88;4.47;;;;;;;2.45;100.00;100039.31;5374375;26;21222;-77
2024/04/17 02:56:19;;;;;;;9.05;4.40;;;;;;;2.41;100.00;100042.75;5374315;26;21585;-76
2024/04/17 02:58:49;;;;;;;10.43;4.50;;;;;;;2.36;100.00;100046.13;5371443;26;20364;-77
2024/04/17 03:01:16;;;;;;;9.13;4.60;;;;;;;2.33;100.00;100042.06;5374362;26;20344;-77
2024/04/17 03:03:46;;;;;;;9.52;4.50;;;;;;;2.35;100.00;100039.16;5369045;26;20334;-77
2024/04/17 03:06:16;;;;;;;11.93;4.53;;;;;;;2.28;100.00;100039.31;5371442;26;21424;-77
2024/04/17 03:08:48;;;;;;;10.32;4.50;;;;;;;2.22;100.00;100037.56;5373033;26;20396;-76
2024/04/17 03:11:15;;;;;;;9.05;4.50;;;;;;;2.18;100.00;100039.94;5374259;26;20330;-76
2024/04/17 03:13:46;;;;;;;8.77;4.72;;;;;;;2.14;100.00;100040.63;5371182;26;20362;-77
2024/04/17 03:16:13;;;;;;;9.90;4.65;;;;;;;2.11;100.00;100041.13;5401853;26;20373;-77
2024/04/17 03:18:43;;;;;;;10.38;4.80;;;;;;;2.09;100.00;100043.25;5399359;26;20326;-77
2024/04/17 03:21:11;;;;;;;7.93;4.25;;;;;;;2.07;100.00;100045.34;5400396;26;20318;-77
2024/04/17 03:23:43;;;;;;;11.65;5.18;;;;;;;2.00;100.00;100054.34;5400315;26;20370;-77
2024/04/17 03:26:11;;;;;;;10.50;5.00;;;;;;;1.99;100.00;100051.88;5370741;26;20367;-76
2024/04/17 03:28:41;;;;;;;10.02;4.72;;;;;;;1.98;100.00;100050.28;5400701;26;20399;-79
2024/04/17 03:31:08;;;;;;;11.80;4.70;;;;;;;2.00;100.00;100064.25;5369254;26;20404;-79
2024/04/17 03:33:38;;;;;;;11.55;5.13;;;;;;;1.95;100.00;100056.94;5401015;26;20399;-79
2024/04/17 03:36:07;;;;;;;10.90;4.90;;;;;;;1.95;100.00;100064.16;5371416;26;20746;-79
2024/04/17 03:38:37;;;;;;;8.90;4.90;;;;;;;1.92;100.00;100065.47;5372023;26;20370;-79
2024/04/17 03:41:10;;;;;;;9.97;4.63;;;;;;;1.91;100.00;100060.34;5371624;26;20377;-79
2024/04/17 03:43:40;;;;;;;10.77;4.90;;;;;;;1.92;100.00;100060.09;5372058;26;20523;-79
2024/04/17 03:46:10;;;;;;;10.00;4.80;;;;;;;1.95;100.00;100059.59;5370600;26;20326;-79
2024/04/17 03:48:40;;;;;;;10.40;5.40;;;;;;;1.98;100.00;100066.38;5372359;26;22238;-79
2024/04/17 03:51:08;;;;;;;9.95;5.05;;;;;;;1.97;100.00;100057.47;5372307;26;20318;-79
2024/04/17 03:53:38;;;;;;;10.70;5.25;;;;;;;1.98;100.00;100053.75;5400169;26;20829;-79
2024/04/17 03:56:08;;;;;;;14.13;5.05;;;;;;;1.97;100.00;100059.38;5371584;26;20326;-79
2024/04/17 03:58:38;;;;;;;12.93;5.50;;;;;;;1.97;100.00;100065.53;5371572;26;20366;-79
2024/04/17 04:01:08;;;;;;;9.57;5.00;;;;;;;1.98;100.00;100066.38;5372294;26;20410;-79
2024/04/17 04:03:36;;;;;;;9.88;5.20;;;;;;;2.04;100.00;100060.88;5397290;26;20370;-79
2024/04/17 04:06:06;;;;;;;12.40;5.03;;;;;;;2.04;100.00;100063.56;5372468;26;20326;-79
2024/04/17 04:08:34;;;;;;;11.60;5.25;;;;;;;2.04;100.00;100063.56;5400357;26;20390;-79
2024/04/17 04:11:04;;;;;;;9.88;5.15;;;;;;;2.12;100.00;100056.19;5401682;26;20403;-80
2024/04/17 04:13:34;;;;;;;8.97;4.87;;;;;;;2.12;100.00;100062.34;5370665;26;20382;-80
2024/04/17 04:16:04;;;;;;;10.52;5.38;;;;;;;2.18;100.00;100066.78;5370639;26;20330;-79
2024/04/17 04:18:31;;;;;;;10.40;5.20;;;;;;;2.26;100.00;100067.44;5371944;26;20382;-80
2024/04/17 04:21:01;;;;;;;11.15;5.13;;;;;;;2.35;100.00;100074.06;5370924;26;20405;-79
2024/04/17 04:23:29;;;;;;;10.05;4.97;;;;;;;2.42;100.00;100081.94;5372123;26;20338;-79
2024/04/17 04:25:59;;;;;;;9.35;4.97;;;;;;;2.40;100.00;100090.25;5369926;26;20338;-79
2024/04/17 04:28:28;;;;;;;9.90;4.63;;;;;;;2.43;100.00;100094.34;5398778;26;20794;-79
2024/04/17 04:31:01;;;;;;;13.82;4.95;;;;;;;2.31;100.00;100087.16;5370894;26;20356;-77
2024/04/17 04:33:29;;;;;;;9.82;4.55;;;;;;;2.27;100.00;100091.38;5397437;26;20363;-77
2024/04/17 04:35:59;;;;;;;10.23;4.85;;;;;;;2.24;100.00;100091.84;5369912;26;20333;-77
2024/04/17 04:38:27;;;;;;;9.50;4.60;;;;;;;2.18;100.00;100093.63;5370353;26;20394;-77
2024/04/17 04:40:57;;;;;;;7.93;4.43;;;;;;;2.19;100.00;100097.09;5373351;26;20397;-77
2024/04/17 04:43:24;;;;;;;10.38;5.25;;;;;;;2.17;100.00;100093.88;5370904;26;20333;-77
2024/04/17 04:45:55;;;;;;;11.57;5.03;;;;;;;2.16;100.00;100095.72;5395200;26;20352;-77
2024/04/17 04:48:25;;;;;;;9.30;4.65;;;;;;;2.17;100.00;100099.22;5370906;26;20713;-77
2024/04/17 04:50:55;;;;;;;8.70;4.60;;;;;;;2.21;100.00;100097.69;5369603;26;20334;-77
2024/04/17 04:53:22;;;;;;;11.02;4.65;;;;;;;2.22;100.00;100102.00;5370990;26;20326;-77
2024/04/17 04:55:59;;;;;;;8.60;4.70;;;;;;;2.22;100.00;100110.03;5399792;26;20326;-77
2024/04/17 04:58:27;;;;;;;9.95;4.72;;;;;;;2.30;100.00;100114.25;5368968;26;20334;-77
2024/04/17 05:00:57;;;;;;;9.50;4.43;;;;;;;2.42;100.00;100109.63;5372155;26;20314;-77
2024/04/17 05:03:27;;;;;;;9.63;4.55;;;;;;;2.48;100.00;100108.66;5371170;26;20330;-77
2024/04/17 05:05:57;;;;;;;9.43;4.40;;;;;;;3.11;100.00;100111.38;5367221;26;20345;-77
2024/04/17 05:08:32;;;;;;;9.37;4.50;;;;;;;4.97;100.00;100103.69;5367635;26;20326;-78
2024/04/17 05:11:02;;;;;;;8.70;4.47;;;;;;;6.47;100.00;100110.78;5390896;26;20326;-77
2024/04/17 05:13:29;;;;;;;6.50;3.80;;;;;;;7.61;100.00;100111.63;5364768;26;20344;-78
2024/04/17 05:15:59;;;;;;;7.13;3.47;;;;;;;8.53;100.00;100105.06;5369151;26;20340;-78
2024/04/17 05:18:30;;;;;;;7.45;3.33;;;;;;;8.10;100.00;100115.56;5367492;26;20670;-78
2024/04/17 05:21:05;;;;;;;7.20;3.20;;;;;;;7.03;100.00;100114.63;5365799;26;20438;-78
2024/04/17 05:23:32;;;;;;;5.80;3.10;;;;;;;6.39;100.00;100108.59;5369306;26;20341;-78
2024/04/17 05:26:02;;;;;;;5.85;3.20;;;;;;;5.59;100.00;100129.28;5370380;26;20326;-78
2024/04/17 05:28:30;;;;;;;7.68;3.40;;;;;;;5.23;100.00;100128.19;5392082;26;20819;-78
2024/04/17 05:31:00;;;;;;;8.82;3.50;;;;;;;4.86;100.00;100127.06;5372081;26;20401;-77
2024/04/17 05:33:30;;;;;;;7.60;3.50;;;;;;;4.58;100.00;100131.66;5370054;26;20368;-78
2024/04/17 05:36:00;;;;;;;7.03;3.55;;;;;;;4.41;100.00;100131.72;5369452;26;20318;-77
2024/04/17 05:38:27;;;;;;;7.70;3.50;;;;;;;4.33;100.00;100132.16;5398643;26;20373;-77
2024/04/17 05:40:58;;;;;;;7.45;3.63;;;;;;;4.34;100.00;100138.38;5369708;26;20343;-77
2024/04/17 05:43:25;;;;;;;7.47;3.53;;;;;;;4.26;100.00;100134.25;5370353;26;20869;-77
2024/04/17 05:45:55;;;;;;;8.27;3.80;;;;;;;4.36;100.00;100136.22;5369691;26;20377;-77
2024/04/17 05:48:23;;;;;;;7.90;3.72;;;;;;;4.23;100.00;100129.34;5397136;26;20402;-78
2024/04/17 05:50:55;;;;;;;7.53;3.50;;;;;;;4.22;100.00;100133.91;5369888;26;21276;-78
2024/04/17 05:53:24;;;;;;;8.80;4.10;;;;;;;4.25;100.00;100136.13;5367749;26;20687;-78
2024/04/17 05:55:55;;;;;;;7.30;3.40;;;;;;;4.49;100.00;100132.31;5397886;26;22538;-78
2024/04/17 05:58:22;;;;;;;8.35;3.60;;;;;;;4.50;100.00;100133.97;5365213;26;20389;-78
2024/04/17 06:00:52;;;;;;;8.63;3.67;;;;;;;4.65;100.00;100142.22;5368427;26;20323;-78
2024/04/17 06:03:20;;;;;;;7.60;3.70;;;;;;;4.51;100.00;100139.09;5370031;26;20365;-78
2024/04/17 06:05:50;;;;;;;6.93;3.35;;;;;;;4.56;100.00;100141.84;5371968;26;20395;-78
2024/04/17 06:08:20;;;;;;;6.80;3.30;;;;;;;4.66;100.00;100141.16;5371998;26;20326;-78
2024/04/17 06:10:50;;;;;;;6.22;3.28;;;;;;;4.69;100.00;100146.03;5369546;26;20329;-78
2024/04/17 06:13:17;;;;;;;7.03;3.40;;;;;;;4.80;100.00;100143.44;5372609;26;20334;-78
2024/04/17 06:15:48;;;;;;;6.57;3.13;;;;;;;4.92;100.00;100158.41;5373420;26;20344;-78
2024/04/17 06:18:16;;;;;;;6.82;3.47;;;;;;;5.07;100.00;100155.03;5370845;26;20737;-78
2024/04/17 06:20:46;;;;;;;6.72;3.35;;;;;;;5.18;100.00;100155.94;5398590;26;20352;-78
2024/04/17 06:23:14;;;;;;;6.45;3.42;;;;;;;5.09;100.00;100158.28;5372036;26;20326;-78
2024/04/17 06:25:48;;;;;;;6.63;3.08;;;;;;;5.23;100.00;100165.94;5399361;26;20382;-78
2024/04/17 06:28:16;;;;;;;6.78;3.30;;;;;;;5.18;100.00;100166.72;5383928;26;20826;-78
2024/04/17 06:30:48;;;;;;;7.13;3.30;;;;;;;5.19;100.00;100164.84;5372556;26;20377;-78
2024/04/17 06:33:16;;;;;;;6.20;2.92;;;;;;;5.37;100.00;100163.63;5369043;26;20322;-78
2024/04/17 06:35:47;;;;;;;5.97;2.70;;;;;;;5.22;100.00;100161.63;5399798;26;20387;-78
2024/04/17 06:38:15;;;;;;;8.02;3.30;;;;;;;5.33;100.00;100167.91;5371634;26;20854;-78
2024/04/17 06:40:55;;;;;;;6.88;2.92;;;;;;;5.22;100.00;100170.53;5368993;26;20347;-79
2024/04/17 06:43:30;;;;;;;6.30;2.80;;;;;;;5.28;100.00;100156.00;5399672;26;20377;-78
2024/04/17 06:46:01;;;;;;;6.25;3.10;;;;;;;5.54;100.00;100166.22;5366562;26;21337;-78
2024/04/17 06:48:29;;;;;;;6.10;2.78;;;;;;;5.68;100.00;100175.47;5361131;26;20369;-78
2024/04/17 06:50:59;;;;;;;5.97;2.97;;;;;;;5.58;100.00;100176.22;5397299;26;20395;-78
2024/04/17 06:53:26;;;;;;;5.35;2.70;;;;;;;5.62;100.00;100171.09;5369747;26;20368;-78
2024/04/17 06:55:59;;;;;;;5.50;2.40;;;;;;;5.69;100.00;100174.41;5368661;26;20330;-77
2024/04/17 06:58:27;;;;;;;6.63;2.35;;;;;;;5.54;100.00;100180.50;5394909;26;20370;-77
2024/04/17 07:00:57;;;;;;;6.65;2.50;;;;;;;5.62;100.00;100171.94;5395721;26;20810;-77
2024/04/17 07:03:24;;;;;;;6.38;2.55;;;;;;;5.66;100.00;100171.41;5392889;26;20727;-78
2024/04/17 07:06:02;;;;;;;6.05;2.63;;;;;;;5.74;100.00;100181.72;5368109;26;20423;-78
2024/04/17 07:08:30;;;;;;;5.10;2.47;;;;;;;5.94;100.00;100183.75;5400041;26;20389;-79
2024/04/17 07:11:02;;;;;;;5.07;2.53;;;;;;;5.99;100.00;100180.28;5368632;26;20754;-77
2024/04/17 07:13:30;;;;;;;8.25;2.30;;;;;;;6.13;100.00;100176.88;5397337;26;20342;-76
2024/04/17 07:16:00;;;;;;;6.80;2.72;;;;;;;5.95;100.00;100183.50;5366413;26;20322;-77
2024/04/17 07:18:27;;;;;;;6.72;2.78;;;;;;;6.05;100.00;100187.34;5367083;26;20334;-77
2024/04/17 07:20:57;;;;;;;5.30;2.35;;;;;;;6.12;100.00;100187.94;5367736;26;20357;-77
2024/04/17 07:23:25;;;;;;;5.10;2.38;;;;;;;6.29;100.00;100185.03;5370328;26;20348;-77
2024/04/17 07:25:55;;;;;;;5.55;2.47;;;;;;;6.31;100.00;100190.97;5398617;26;20401;-77
2024/04/17 07:28:25;;;;;;;5.72;2.50;;;;;;;6.35;100.00;100189.38;5368114;26;20349;-77
2024/04/17 07:30:55;;;;;;;4.47;2.10;;;;;;;6.32;100.00;100192.59;5360493;26;20364;-77
2024/04/17 07:33:22;;;;;;;6.07;2.10;;;;;;;6.53;100.00;100190.00;5388965;26;20338;-77
2024/04/17 07:36:00;;;;;;;4.45;1.95;;;;;;;6.74;100.00;100188.16;5369398;26;20319;-77
2024/04/17 07:38:27;;;;;;;3.53;1.90;;;;;;;6.84;100.00;100187.41;5356149;26;20682;-77
2024/04/17 07:40:59;;;;;;;5.63;2.10;;;;;;;6.84;100.00;100192.81;5364438;26;20386;-77
2024/04/17 07:43:31;;;;;;;3.90;1.83;;;;;;;6.91;100.00;100187.94;5366710;26;20442;-77
2024/04/17 07:46:02;;;;;;;5.65;1.85;;;;;;;6.90;100.00;100192.53;5364053;26;20345;-80
2024/04/17 07:48:30;;;;;;;3.22;1.60;;;;;;;6.87;100.00;100187.66;5365899;26;20372;-78
2024/04/17 07:51:00;;;;;;;5.63;1.80;;;;;;;6.75;100.00;100195.19;5396831;26;20363;-78
2024/04/17 07:53:27;;;;;;;4.80;2.00;;;;;;;6.85;100.00;100192.53;5398094;26;20374;-78
2024/04/17 07:55:57;;;;;;;3.10;1.60;;;;;;;7.02;100.00;100189.59;5303345;26;20354;-77
2024/04/17 07:58:25;;;;;;;4.90;1.73;;;;;;;7.05;100.00;100189.06;5346763;26;20777;-78
2024/04/17 08:00:57;;;;;;;3.55;1.65;;;;;;;7.09;100.00;100198.25;5315060;26;20330;-78
2024/04/17 08:03:25;;;;;;;3.75;1.50;;;;;;;7.22;100.00;100198.81;5336109;26;20362;-78
2024/04/17 08:05:55;;;;;;;3.72;1.65;;;;;;;7.35;100.00;100189.34;5323652;26;20330;-78
2024/04/17 08:08:23;;;;;;;4.15;1.45;;;;;;;7.18;100.00;100195.84;5317082;26;20369;-78
2024/04/17 08:10:53;;;;;;;2.77;1.30;;;;;;;7.29;100.00;100193.94;5330549;26;20425;-78
2024/04/17 08:13:20;;;;;;;4.90;1.50;;;;;;;7.39;100.00;100193.97;5328974;26;20369;-78
2024/04/17 08:15:53;;;;;;;3.38;1.40;;;;;;;7.34;100.00;100190.44;5340015;26;20335;-78
2024/04/17 08:18:23;;;;;;;3.05;1.38;;;;;;;7.40;100.00;100187.47;5348615;26;22226;-78
2024/04/17 08:20:57;;;;;;;3.25;1.70;;;;;;;7.38;100.00;100184.22;5326182;26;20368;-78
2024/04/17 08:23:25;;;;;;;3.10;1.48;;;;;;;7.40;100.00;100183.94;5319354;26;20334;-78
2024/04/17 08:25:55;;;;;;;3.83;1.40;;;;;;;7.55;100.00;100186.63;5331061;26;20334;-79
2024/04/17 08:28:23;;;;;;;3.88;1.40;;;;;;;7.58;100.00;100190.69;5358957;26;20367;-78
2024/04/17 08:30:53;;;;;;;3.43;1.50;;;;;;;7.76;100.00;100192.03;5332774;26;20438;-78
2024/04/17 08:33:23;;;;;;;4.00;1.40;;;;;;;7.65;100.00;100183.94;5325915;26;21412;-78
2024/04/17 08:35:53;;;;;;;3.50;1.52;;;;;;;7.65;100.00;100183.09;5357069;26;20877;-78
2024/04/17 08:38:20;;;;;;;2.72;1.30;;;;;;;7.72;100.00;100193.66;5327525;26;20361;-78
2024/04/17 08:40:53;;;;;;;6.63;2.45;;;;;;;7.85;100.00;100186.91;5359007;26;22904;-78
2024/04/17 08:43:24;;;;;;;3.53;1.23;;;;;;;7.89;100.00;100188.78;5353270;26;20338;-77
2024/04/17 08:45:55;;;;;;;2.25;1.10;;;;;;;7.78;100.00;100192.59;5330211;26;20392;-78
2024/04/17 08:48:26;;;;;;;3.13;1.20;;;;;;;7.95;91.26;100181.44;5357264;26;20341;-78
2024/04/17 08:50:57;;;;;;;1.95;1.10;;;;;;;7.91;91.96;100191.22;5339001;26;20341;-78
2024/04/17 08:53:26;;;;;;;2.55;1.08;;;;;;;8.11;100.00;100182.22;5331573;26;20338;-79
2024/04/17 08:55:57;;;;;;;3.55;1.23;;;;;;;8.43;100.00;100187.25;5300972;26;20346;-77
2024/04/17 08:58:25;;;;;;;2.63;1.40;;;;;;;8.22;95.01;100188.44;5322665;26;20346;-78
2024/04/17 09:00:57;;;;;;;5.88;1.40;;;;;;;8.11;85.57;100187.66;5327662;26;20361;-78
2024/04/17 09:03:27;;;;;;;4.40;1.10;;;;;;;8.03;91.48;100193.63;5336311;26;20350;-78
2024/04/17 09:05:57;;;;;;;5.55;1.20;;;;;;;8.04;86.44;100189.81;5354331;26;20342;-77
2024/04/17 09:08:25;;;;;;;3.88;1.10;;;;;;;8.17;95.37;100195.50;5329449;26;20369;-77
2024/04/17 09:10:56;;;;;;;2.30;1.08;;;;;;;8.00;91.89;100189.56;5332558;26;20359;-77
2024/04/17 09:13:23;;;;;;;2.33;1.08;;;;;;;7.96;83.53;100192.00;5333394;26;20346;-78
2024/04/17 09:15:54;;;;;;;2.63;1.05;;;;;;;8.29;82.88;100188.94;5348190;26;21067;-77
2024/04/17 09:18:28;;;;;;;2.67;1.10;;;;;;;8.25;75.14;100188.69;5323679;26;22396;-78
2024/04/17 09:20:58;;;;;;;4.55;1.27;;;;;;;8.26;69.00;100190.31;5323051;26;20374;-77
2024/04/17 09:23:25;;;;;;;2.83;1.00;;;;;;;8.54;67.21;100187.25;5324301;26;21290;-77
2024/04/17 09:25:56;;;;;;;1.92;0.82;;;;;;;8.50;66.51;100190.50;5330390;26;20330;-77
2024/04/17 09:28:24;;;;;;;1.70;0.90;;;;;;;8.54;71.22;100195.41;5326364;26;20368;-77
2024/04/17 09:30:54;;;;;;;1.60;1.00;;;;;;;8.59;71.01;100193.47;5309371;26;20382;-77
2024/04/17 09:33:21;;;;;;;3.25;1.20;;;;;;;8.45;70.85;100189.72;5327615;26;21153;-76
2024/04/17 09:35:54;;;;;;;2.90;1.17;;;;;;;8.67;78.08;100187.47;5328481;26;20322;-77
2024/04/17 09:38:22;;;;;;;3.40;1.00;;;;;;;8.71;81.77;100195.84;5318322;26;20338;-77
2024/04/17 09:40:52;;;;;;;2.10;1.00;;;;;;;8.46;73.57;100186.72;5322402;26;20360;-77
2024/04/17 09:43:23;;;;;;;4.13;1.30;;;;;;;8.56;73.42;100193.19;5322557;26;20349;-77
2024/04/17 09:46:00;;;;;;;2.37;1.00;;;;;;;8.45;73.99;100189.72;5321033;26;20346;-76
2024/04/17 09:48:28;;;;;;;1.33;0.70;;;;;;;8.32;67.41;100191.91;5327397;26;20333;-76
2024/04/17 09:51:03;;;;;;;1.88;0.80;;;;;;;8.23;64.25;100196.28;5325698;26;20358;-77
2024/04/17 09:53:32;;;;;;;2.13;0.93;;;;;;;8.04;72.80;100197.94;5332865;26;20338;-77
2024/04/17 09:56:03;;;;;;;1.52;0.80;;;;;;;8.21;74.86;100198.44;5303551;26;20641;-77
2024/04/17 09:58:32;;;;;;;2.53;0.80;;;;;;;8.41;64.25;100197.59;5322109;26;20330;-77
2024/04/17 10:01:05;;;;;;;2.90;0.93;;;;;;;8.49;62.85;100193.50;5335743;26;20346;-76
2024/04/17 10:03:34;;;;;;;2.17;0.95;;;;;;;8.66;64.55;100191.25;5361586;26;20326;-77
2024/04/17 10:06:07;;;;;;;2.38;0.90;;;;;;;8.78;64.43;100182.78;5350110;26;20371;-77
2024/04/17 10:08:41;;;;;;;2.13;0.90;;;;;;;8.94;67.95;100188.94;5319910;26;20527;-76
2024/04/17 10:11:12;;;;;;;2.72;1.00;;;;;;;9.12;65.50;100186.66;5355960;26;20349;-76
2024/04/17 10:13:41;;;;;;;2.72;1.10;;;;;;;9.30;66.09;100185.97;5340008;26;20330;-77
2024/04/17 10:16:11;;;;;;;2.70;0.98;;;;;;;9.16;61.04;100177.66;5339435;26;20346;-77
2024/04/17 10:18:39;;;;;;;4.15;1.20;;;;;;;9.60;68.46;100181.38;5323620;26;20357;-77
2024/04/17 10:21:23;;;;;;;4.30;1.17;;;;;;;9.87;69.10;100180.88;5322786;26;20363;-77
2024/04/17 10:23:59;;;;;;;3.15;1.00;;;;;;;9.78;60.13;100181.78;5332019;26;20377;-77
2024/04/17 10:26:38;;;;;;;3.40;1.02;;;;;;;9.60;58.31;100175.13;5343754;26;20350;-77
2024/04/17 10:29:13;;;;;;;2.15;0.90;;;;;;;9.56;63.09;100174.91;5351251;26;20353;-77
2024/04/17 10:31:44;;;;;;;2.22;1.13;;;;;;;9.47;70.15;100182.88;5325949;26;20357;-77
2024/04/17 10:34:11;;;;;;;2.85;1.20;;;;;;;9.41;70.24;100183.19;5326584;26;20346;-77
2024/04/17 10:36:54;;;;;;;3.83;1.20;;;;;;;9.57;74.09;100178.41;5327982;26;20326;-77
2024/04/17 10:39:25;;;;;;;2.90;1.30;;;;;;;9.69;77.52;100176.13;5326643;26;20326;-77
2024/04/17 10:41:55;;;;;;;2.10;1.17;;;;;;;9.76;63.75;100168.44;5330469;26;20368;-77
2024/04/17 10:44:23;;;;;;;5.60;1.77;;;;;;;9.93;71.15;100164.47;5350116;26;20391;-76
2024/04/17 10:47:02;;;;;;;2.70;1.27;;;;;;;9.90;68.22;100174.00;5329779;26;20678;-77
2024/04/17 10:49:37;;;;;;;3.20;1.10;;;;;;;9.67;64.81;100171.00;5351948;26;20370;-77
2024/04/17 10:52:11;;;;;;;2.33;1.07;;;;;;;9.15;62.61;100183.38;5324194;26;21156;-77
2024/04/17 10:54:38;;;;;;;2.88;1.20;;;;;;;8.95;66.77;100182.41;5328728;26;20338;-77
2024/04/17 10:57:08;;;;;;;3.78;1.10;;;;;;;8.97;64.51;100182.13;5308138;26;20346;-77
2024/04/17 10:59:36;;;;;;;3.92;1.00;;;;;;;9.06;69.53;100185.06;5326156;26;20417;-77
2024/04/17 11:02:06;;;;;;;5.73;1.50;;;;;;;8.91;61.00;100177.81;5319908;26;21291;-78
2024/04/17 11:04:33;;;;;;;2.90;1.13;;;;;;;8.93;66.33;100172.94;5329747;26;21057;-78
2024/04/17 11:07:04;;;;;;;2.10;1.10;;;;;;;9.22;69.47;100174.91;5323946;26;22379;-76
2024/04/17 11:09:34;;;;;;;3.15;1.30;;;;;;;9.44;69.76;100161.69;5317981;26;21219;-78
2024/04/17 11:12:05;;;;;;;2.42;1.20;;;;;;;9.71;62.14;100165.81;5334451;26;20334;-77
2024/04/17 11:14:32;;;;;;;2.97;1.17;;;;;;;9.83;65.14;100165.41;5340420;26;21035;-77
2024/04/17 11:17:03;;;;;;;6.70;1.38;;;;;;;10.08;67.29;100163.50;5366678;26;20366;-77
2024/04/17 11:19:31;;;;;;;4.17;1.30;;;;;;;10.27;64.57;100158.94;5325377;26;20364;-77
2024/04/17 11:22:01;;;;;;;2.60;1.05;;;;;;;10.70;60.96;100160.88;5318141;26;20777;-77
2024/04/17 11:24:28;;;;;;;4.00;1.30;;;;;;;10.71;77.76;100165.22;5357678;26;20464;-78
2024/04/17 11:27:01;;;;;;;2.17;1.05;;;;;;;10.35;90.02;100173.84;5324749;26;20326;-76
2024/04/17 11:29:29;;;;;;;3.40;1.20;;;;;;;10.01;79.99;100169.28;5320823;26;20334;-77
2024/04/17 11:31:59;;;;;;;3.77;1.10;;;;;;;9.68;92.18;100178.06;5321204;26;20357;-76
2024/04/17 11:34:31;;;;;;;4.85;1.23;;;;;;;9.41;92.26;100178.56;5323517;26;20374;-76
2024/04/17 11:37:05;;;;;;;1.90;0.80;;;;;;;9.09;94.29;100187.22;5324987;26;20692;-77
2024/04/17 11:39:34;;;;;;;2.53;0.90;;;;;;;9.20;100.00;100186.06;5319955;26;20357;-78